createdAt,value
2018-05-06T00:02:34.650Z,7.90
2018-05-06T00:17:34.659Z,7.53
2018-05-06T00:32:34.754Z,7.00
2018-05-06T00:47:34.400Z,7.37
2018-05-06T01:02:35.158Z,7.50
2018-05-06T01:17:34.254Z,8.17
2018-05-06T01:32:36.762Z,7.50
2018-05-06T01:47:34.754Z,7.40
2018-05-06T02:02:36.126Z,7.30
2018-05-06T02:17:34.076Z,7.27
2018-05-06T02:32:34.050Z,6.93
2018-05-06T02:47:34.439Z,6.90
2018-05-06T03:02:34.911Z,7.10
2018-05-06T03:17:35.026Z,7.03
2018-05-06T03:32:35.047Z,7.40
2018-05-06T03:47:34.458Z,7.27
2018-05-06T04:02:39.077Z,8.27
2018-05-06T04:17:34.698Z,8.67
2018-05-06T04:32:34.989Z,8.10
2018-05-06T04:47:34.828Z,8.10
2018-05-06T05:02:35.871Z,10.80
2018-05-06T05:17:33.865Z,9.37
2018-05-06T05:32:33.804Z,10.57
2018-05-06T05:47:33.841Z,10.40
2018-05-06T06:02:36.541Z,7.47
2018-05-06T06:17:34.554Z,8.10
2018-05-06T06:32:34.493Z,7.87
2018-05-06T06:47:34.579Z,7.60
2018-05-06T07:02:34.985Z,7.90
2018-05-06T07:17:36.235Z,8.37
2018-05-06T07:32:37.038Z,8.87
2018-05-06T07:47:35.294Z,8.50
2018-05-06T08:02:35.270Z,8.57
2018-05-06T08:17:35.205Z,8.53
2018-05-06T08:32:35.134Z,9.00
2018-05-06T08:47:34.697Z,8.47
2018-05-06T09:02:34.680Z,7.67
2018-05-06T09:17:34.627Z,7.40
2018-05-06T09:32:34.732Z,7.40
2018-05-06T09:47:34.597Z,7.23
2018-05-06T10:02:34.906Z,6.93
2018-05-06T10:17:37.046Z,6.33
2018-05-06T10:32:35.411Z,6.70
2018-05-06T10:47:35.819Z,6.33
2018-05-06T11:02:35.226Z,6.37
2018-05-06T11:17:35.265Z,6.30
2018-05-06T11:32:35.264Z,7.20
2018-05-06T11:47:34.623Z,6.67
2018-05-06T12:02:36.713Z,6.70
2018-05-06T12:17:34.522Z,7.50
2018-05-06T12:32:34.365Z,7.17
2018-05-06T12:47:38.875Z,8.37
2018-05-06T13:02:34.903Z,6.90
2018-05-06T13:17:34.705Z,7.13
2018-05-06T13:32:34.972Z,5.90
2018-05-06T13:47:34.591Z,6.20
2018-05-06T14:02:34.677Z,7.23
2018-05-06T14:17:35.294Z,7.53
2018-05-06T14:32:35.318Z,7.30
2018-05-06T14:47:55.641Z,6.33
2018-05-06T15:02:34.618Z,7.20
2018-05-06T15:17:34.433Z,7.50
2018-05-06T15:32:34.422Z,7.10
2018-05-06T15:47:34.694Z,7.60
2018-05-06T16:02:57.226Z,7.30
2018-05-06T16:17:34.730Z,7.73
2018-05-06T16:32:37.349Z,7.80
2018-05-06T16:47:35.234Z,8.07
2018-05-06T17:02:35.053Z,8.00
2018-05-06T17:17:34.992Z,9.00
2018-05-06T17:32:35.197Z,9.37
2018-05-06T17:47:34.325Z,8.80
2018-05-06T18:02:33.406Z,8.57
2018-05-06T18:17:35.183Z,7.57
2018-05-06T18:32:34.470Z,6.97
2018-05-06T18:47:34.868Z,7.60
2018-05-06T19:02:35.236Z,7.93
2018-05-06T19:17:34.928Z,9.07
2018-05-06T19:32:34.947Z,9.70
2018-05-06T19:47:35.237Z,10.13
2018-05-06T20:02:35.023Z,11.10
2018-05-06T20:17:36.207Z,11.83
2018-05-06T20:32:36.689Z,15.40
2018-05-06T20:47:34.572Z,15.80
2018-05-06T21:02:34.363Z,16.53
2018-05-06T21:17:34.545Z,11.80
2018-05-06T21:32:34.486Z,11.20
2018-05-06T21:47:34.710Z,15.80
2018-05-06T22:02:36.777Z,16.00
2018-05-06T22:17:34.688Z,19.90
2018-05-06T22:32:34.871Z,16.67
2018-05-06T22:47:35.248Z,16.60
2018-05-06T23:02:34.941Z,15.40
2018-05-06T23:17:34.994Z,14.17
2018-05-06T23:32:34.961Z,13.93
2018-05-06T23:47:34.353Z,14.00
